Terminal Aerodrome Forecast
Issued by NWS

Current Version | Previous Version | Text Only | Print | Product List | Glossary On
Versions: 1 2 3 4 5 6 7 8 9 10 11 12 13 14 15 16 17 18 19 20 21 22 23 24 25 26 27 28
000
FTUS41 KBUF 010500
TAFIAG
TAF
KIAG 010538Z 0106/0206 19005KT P6SM VCSH BKN040 OVC100
     FM010800 20007KT P6SM SCT050 SCT100
     FM011800 22010G18KT P6SM VCSH SCT050 SCT100
     FM012000 22010G18KT P6SM SCT050 SCT100
     FM012300 23005KT P6SM BKN050=

USA.gov is the U.S. government's official web portal to all federal, state and local government web resources and services.